Time;durP1;ratioP1;P1;durP2;ratioP2;P2;SDS_P1;SDS_P2;PMS_P1;PMS_P2;Temp;Humidity;BMP_temperature;BMP_pressure;BME280_temperature;BME280_humidity;BME280_pressure;Samples;Min_cycle;Max_cycle;Signal;HPM_P1;HPM_P2
2022/04/04 00:01:07;;;;;;;9.73;8.73;;;4.40;99.60;;;;;;5037792;28;20178;-85
2022/04/04 00:03:33;;;;;;;11.10;9.43;;;4.30;99.90;;;;;;5019809;28;20177;-84
2022/04/04 00:05:58;;;;;;;10.47;9.43;;;4.30;99.90;;;;;;5037134;28;20258;-84
2022/04/04 00:08:24;;;;;;;10.27;9.37;;;4.20;99.90;;;;;;5037186;28;20569;-86
2022/04/04 00:10:50;;;;;;;10.70;9.70;;;4.10;99.90;;;;;;5037503;28;20562;-84
2022/04/04 00:13:16;;;;;;;10.80;9.70;;;3.90;99.90;;;;;;5037154;28;20168;-84
2022/04/04 00:15:42;;;;;;;10.93;9.93;;;3.70;99.90;;;;;;5036991;28;20174;-83
2022/04/04 00:18:10;;;;;;;12.07;10.17;;;3.60;99.90;;;;;;5037946;28;20529;-86
2022/04/04 00:20:40;;;;;;;11.37;10.27;;;3.40;99.90;;;;;;5037808;28;20180;-87
2022/04/04 00:23:12;;;;;;;12.20;10.67;;;3.30;99.90;;;;;;5037425;28;20698;-89
2022/04/04 00:25:39;;;;;;;11.90;10.67;;;3.30;99.90;;;;;;5019777;28;20639;-88
2022/04/04 00:28:04;;;;;;;11.90;10.70;;;3.30;99.90;;;;;;5037441;28;20179;-91
2022/04/04 00:30:30;;;;;;;12.37;11.17;;;3.30;99.90;;;;;;5037433;28;20262;-89
2022/04/04 00:32:56;;;;;;;11.63;10.47;;;3.30;99.90;;;;;;5037616;28;20651;-88
2022/04/04 00:35:22;;;;;;;12.53;11.30;;;3.30;99.90;;;;;;5037373;28;20303;-90
2022/04/04 00:37:48;;;;;;;11.43;10.40;;;3.20;99.90;;;;;;5037034;28;20172;-84
2022/04/04 00:40:13;;;;;;;11.93;10.77;;;3.20;99.90;;;;;;5036528;28;20616;-84
2022/04/04 00:42:40;;;;;;;14.13;10.93;;;3.10;99.90;;;;;;5018595;28;20173;-83
2022/04/04 00:45:06;;;;;;;12.77;11.47;;;3.10;99.90;;;;;;5018738;28;20528;-86
2022/04/04 00:47:32;;;;;;;11.90;10.70;;;3.10;99.90;;;;;;5036319;28;20173;-83
2022/04/04 00:49:58;;;;;;;12.30;11.07;;;3.00;99.90;;;;;;5036526;28;20232;-83
2022/04/04 00:52:25;;;;;;;12.47;11.23;;;3.00;99.90;;;;;;5036983;28;20203;-85
2022/04/04 00:54:52;;;;;;;12.90;11.60;;;3.00;99.90;;;;;;5019011;28;20238;-87
2022/04/04 00:57:18;;;;;;;12.40;11.17;;;3.00;99.90;;;;;;5036754;28;20168;-84
2022/04/04 00:59:44;;;;;;;12.57;11.27;;;3.00;99.90;;;;;;5036370;28;20180;-89
2022/04/04 01:02:10;;;;;;;12.57;11.37;;;3.00;99.90;;;;;;5036650;28;20639;-84
2022/04/04 01:04:35;;;;;;;12.83;11.50;;;3.00;99.90;;;;;;5036608;28;20191;-84
2022/04/04 01:07:02;;;;;;;11.90;10.77;;;3.10;99.90;;;;;;5037318;28;20172;-91
2022/04/04 01:09:28;;;;;;;14.73;11.60;;;3.10;99.90;;;;;;5037186;28;20219;-84
2022/04/04 01:12:11;;;;;;;12.70;10.83;;;3.00;99.90;;;;;;5038627;28;20630;-88
2022/04/04 01:14:39;;;;;;;15.30;10.93;;;3.10;99.90;;;;;;5044792;28;20177;-83
2022/04/04 01:17:06;;;;;;;12.53;11.33;;;3.10;99.90;;;;;;5051235;28;20180;-82
2022/04/04 01:19:32;;;;;;;12.97;11.13;;;3.10;99.90;;;;;;5050737;28;20179;-83
2022/04/04 01:21:59;;;;;;;14.47;11.57;;;3.10;99.90;;;;;;5052259;28;20186;-83
2022/04/04 01:24:26;;;;;;;12.73;11.43;;;3.10;99.90;;;;;;5053617;28;20192;-85
2022/04/04 01:26:53;;;;;;;12.80;11.43;;;3.10;99.90;;;;;;5036367;28;20172;-85
2022/04/04 01:29:23;;;;;;;13.17;11.87;;;3.10;99.90;;;;;;5036033;28;20210;-86
2022/04/04 01:31:50;;;;;;;12.80;11.60;;;3.10;99.90;;;;;;5035778;28;20170;-85
2022/04/04 01:34:18;;;;;;;12.03;10.83;;;3.10;99.90;;;;;;5035954;28;20178;-89
2022/04/04 01:36:44;;;;;;;12.63;11.33;;;3.10;99.90;;;;;;5020015;28;20182;-88
2022/04/04 01:39:10;;;;;;;12.53;11.23;;;3.10;99.90;;;;;;5044304;28;20180;-83
2022/04/04 01:41:36;;;;;;;12.27;11.17;;;3.20;99.90;;;;;;5021242;28;20193;-90
2022/04/04 01:44:03;;;;;;;13.97;12.00;;;3.30;99.90;;;;;;5036180;28;20180;-89
2022/04/04 01:46:28;;;;;;;13.10;11.47;;;3.20;99.90;;;;;;5018358;28;20187;-87
2022/04/04 01:48:57;;;;;;;13.83;12.17;;;3.20;99.90;;;;;;5035507;28;20216;-83
2022/04/04 01:51:23;;;;;;;12.40;11.13;;;3.20;99.90;;;;;;5017708;28;20204;-86
2022/04/04 01:53:49;;;;;;;14.17;12.50;;;3.10;99.90;;;;;;5038507;28;20170;-88
2022/04/04 01:56:15;;;;;;;13.43;12.10;;;3.00;99.90;;;;;;5038323;28;20242;-83
2022/04/04 01:58:41;;;;;;;12.33;11.13;;;2.90;99.90;;;;;;5045681;28;20650;-87
2022/04/04 02:01:16;;;;;;;16.00;12.00;;;2.90;99.90;;;;;;5030577;28;20271;-83
2022/04/04 02:03:45;;;;;;;13.07;11.77;;;2.90;99.90;;;;;;5030870;28;20177;-83
2022/04/04 02:06:11;;;;;;;12.33;11.00;;;3.00;99.90;;;;;;5052347;28;20174;-84
2022/04/04 02:08:37;;;;;;;12.90;11.60;;;2.90;99.90;;;;;;5039279;28;20247;-84
2022/04/04 02:11:04;;;;;;;12.03;10.83;;;3.10;99.90;;;;;;5035830;28;20208;-88
2022/04/04 02:13:30;;;;;;;13.17;11.87;;;3.10;99.90;;;;;;5017289;28;20575;-90
2022/04/04 02:15:58;;;;;;;11.83;10.63;;;3.10;99.90;;;;;;5017292;28;20249;-83
2022/04/04 02:18:24;;;;;;;11.70;10.60;;;3.10;99.90;;;;;;5034622;28;20226;-84
2022/04/04 02:20:50;;;;;;;10.77;9.77;;;3.10;99.90;;;;;;5034330;28;20227;-87
2022/04/04 02:23:18;;;;;;;11.33;10.23;;;3.10;99.90;;;;;;5034516;28;20648;-89
2022/04/04 02:25:48;;;;;;;11.33;10.20;;;3.00;99.90;;;;;;5035419;28;20169;-89
2022/04/04 02:28:15;;;;;;;12.13;10.80;;;2.90;99.90;;;;;;5017024;28;20178;-85
2022/04/04 02:30:42;;;;;;;10.80;9.80;;;3.00;99.90;;;;;;5017958;28;20185;-86
2022/04/04 02:33:09;;;;;;;11.33;10.33;;;3.10;99.90;;;;;;5034355;28;20651;-87
2022/04/04 02:35:35;;;;;;;12.37;10.57;;;3.00;99.90;;;;;;5034874;28;20584;-87
2022/04/04 02:38:02;;;;;;;13.17;10.33;;;3.10;99.90;;;;;;5034952;28;20180;-88
2022/04/04 02:40:28;;;;;;;11.47;10.27;;;3.10;99.90;;;;;;5034397;28;20632;-83
2022/04/04 02:42:54;;;;;;;11.63;10.53;;;3.00;99.90;;;;;;5034430;28;20177;-83
2022/04/04 02:45:20;;;;;;;11.60;10.40;;;3.00;99.90;;;;;;5034384;28;20168;-86
2022/04/04 02:47:46;;;;;;;12.97;10.40;;;2.90;99.90;;;;;;5034693;28;20169;-85
2022/04/04 02:50:13;;;;;;;11.17;10.13;;;2.90;99.90;;;;;;5016424;28;20237;-87
2022/04/04 02:52:39;;;;;;;11.20;10.10;;;2.90;99.90;;;;;;5034164;28;20179;-87
2022/04/04 02:57:52;;;;;;;10.00;9.10;;;2.90;99.90;;;;;;5035175;28;20168;-91
2022/04/04 03:00:19;;;;;;;12.30;10.40;;;2.90;99.90;;;;;;5034946;28;20178;-92
2022/04/04 03:02:46;;;;;;;11.80;10.57;;;2.90;99.90;;;;;;5034922;28;20180;-91
2022/04/04 03:05:12;;;;;;;11.20;10.20;;;2.90;99.90;;;;;;5034866;28;20173;-87
2022/04/04 03:07:38;;;;;;;10.83;9.73;;;2.80;99.90;;;;;;5034751;28;20221;-90
2022/04/04 03:10:04;;;;;;;11.40;10.30;;;2.80;99.90;;;;;;5017225;28;20213;-87
2022/04/04 03:12:30;;;;;;;11.83;10.73;;;2.80;99.90;;;;;;5034830;28;20170;-88
2022/04/04 03:14:56;;;;;;;11.37;10.37;;;2.80;99.90;;;;;;5035104;28;20173;-91
2022/04/04 03:17:22;;;;;;;11.50;10.40;;;2.90;99.90;;;;;;5036778;28;20230;-87
2022/04/04 03:19:47;;;;;;;11.63;10.23;;;2.90;99.90;;;;;;5022766;28;20226;-82
2022/04/04 03:22:14;;;;;;;12.17;10.97;;;2.80;99.90;;;;;;5029011;28;20169;-83
2022/04/04 03:24:40;;;;;;;12.30;11.10;;;2.80;99.90;;;;;;5045543;28;20190;-83
2022/04/04 03:27:06;;;;;;;11.20;10.20;;;2.80;99.90;;;;;;5046232;28;20525;-83
2022/04/04 03:29:32;;;;;;;12.13;10.00;;;2.90;99.90;;;;;;5043057;28;20205;-84
2022/04/04 03:31:58;;;;;;;11.97;10.67;;;2.80;99.90;;;;;;5027451;28;20233;-84
2022/04/04 03:34:25;;;;;;;11.87;10.77;;;2.80;99.90;;;;;;5042331;28;20338;-86
2022/04/04 03:36:51;;;;;;;11.70;10.63;;;2.70;99.90;;;;;;5039680;28;20263;-90
2022/04/04 03:39:17;;;;;;;12.33;11.10;;;2.80;99.90;;;;;;5021440;28;20595;-87
2022/04/04 03:41:45;;;;;;;11.53;10.43;;;2.70;99.90;;;;;;5042508;28;20168;-84
2022/04/04 03:44:12;;;;;;;11.37;10.27;;;2.70;99.90;;;;;;5043449;28;20180;-84
2022/04/04 03:46:38;;;;;;;11.23;10.23;;;2.70;99.90;;;;;;5038087;28;20169;-85
2022/04/04 03:49:05;;;;;;;11.80;10.60;;;2.70;99.90;;;;;;5041211;28;20211;-83
2022/04/04 03:51:31;;;;;;;12.67;11.17;;;2.70;99.90;;;;;;5046913;28;20174;-83
2022/04/04 03:53:58;;;;;;;13.97;10.57;;;2.70;99.90;;;;;;5038804;28;20181;-87
2022/04/04 03:56:24;;;;;;;11.37;10.03;;;2.80;99.90;;;;;;5039403;28;20634;-85
2022/04/04 03:58:50;;;;;;;11.83;10.80;;;2.70;99.90;;;;;;5037521;28;20176;-85
2022/04/04 04:01:16;;;;;;;11.70;10.57;;;2.70;99.90;;;;;;5037592;28;20190;-90
2022/04/04 04:03:42;;;;;;;11.03;10.00;;;2.70;99.90;;;;;;5037304;28;20173;-87
2022/04/04 04:06:11;;;;;;;12.37;11.07;;;2.60;99.90;;;;;;5037278;28;20215;-86
2022/04/04 04:08:39;;;;;;;11.63;10.53;;;2.60;99.90;;;;;;5037532;28;20265;-86
2022/04/04 04:11:05;;;;;;;12.23;10.83;;;2.60;99.90;;;;;;5019485;28;20182;-88
2022/04/04 04:13:31;;;;;;;11.80;10.67;;;2.50;99.90;;;;;;5037297;28;20174;-90
2022/04/04 04:15:58;;;;;;;12.27;10.97;;;2.50;99.90;;;;;;5038128;28;20201;-86
2022/04/04 04:18:24;;;;;;;12.50;11.20;;;2.60;99.90;;;;;;5037234;28;20169;-86
2022/04/04 04:20:50;;;;;;;12.03;10.87;;;2.60;99.90;;;;;;5019917;28;20173;-88
2022/04/04 04:23:17;;;;;;;11.87;10.80;;;2.50;99.90;;;;;;5037448;28;20171;-89
2022/04/04 04:25:43;;;;;;;13.10;11.50;;;2.60;99.90;;;;;;5037298;28;20193;-90
2022/04/04 04:28:10;;;;;;;12.80;11.50;;;2.60;99.90;;;;;;5037364;28;20176;-89
2022/04/04 04:30:36;;;;;;;12.67;11.37;;;2.60;99.90;;;;;;5019693;28;20722;-90
2022/04/04 04:33:03;;;;;;;13.33;11.93;;;2.70;99.90;;;;;;5037163;28;20169;-91
2022/04/04 04:35:29;;;;;;;14.40;11.50;;;2.70;99.90;;;;;;5037397;28;20303;-87
2022/04/04 04:37:55;;;;;;;13.83;11.10;;;2.70;99.90;;;;;;5037132;28;20235;-90
2022/04/04 04:40:21;;;;;;;12.30;11.10;;;2.70;99.90;;;;;;5038209;28;20205;-86
2022/04/04 04:42:49;;;;;;;10.97;9.97;;;2.60;99.90;;;;;;5038361;28;20173;-85
2022/04/04 04:45:15;;;;;;;12.20;10.90;;;2.60;99.90;;;;;;5036869;28;20633;-87
2022/04/04 04:47:42;;;;;;;12.10;11.00;;;2.50;99.90;;;;;;5036807;28;20181;-88
2022/04/04 04:50:09;;;;;;;12.07;10.77;;;2.50;99.90;;;;;;5036421;28;20230;-87
2022/04/04 04:52:36;;;;;;;11.60;10.50;;;2.50;99.90;;;;;;5037851;28;20521;-87
2022/04/04 04:55:04;;;;;;;13.13;11.23;;;2.50;99.90;;;;;;5036908;28;20179;-85
2022/04/04 04:57:30;;;;;;;12.07;10.87;;;2.60;99.90;;;;;;5038679;28;20174;-86
2022/04/04 04:59:56;;;;;;;11.90;10.80;;;2.60;99.90;;;;;;5041046;28;20205;-87
2022/04/04 05:02:23;;;;;;;11.73;10.63;;;2.60;99.90;;;;;;5036680;28;20521;-89
2022/04/04 05:04:48;;;;;;;12.00;10.80;;;2.60;99.90;;;;;;5019104;28;20214;-85
2022/04/04 05:07:15;;;;;;;11.87;10.67;;;2.60;99.90;;;;;;5036655;28;20213;-85
2022/04/04 05:09:40;;;;;;;12.33;11.00;;;2.70;99.90;;;;;;5018561;28;20623;-90
2022/04/04 05:12:07;;;;;;;12.33;11.13;;;2.70;99.90;;;;;;5018615;28;20179;-88
2022/04/04 05:14:33;;;;;;;12.07;10.77;;;2.70;99.90;;;;;;5035937;28;20535;-87
2022/04/04 05:16:59;;;;;;;12.33;11.03;;;2.80;99.90;;;;;;5035885;28;20179;-84
2022/04/04 05:19:25;;;;;;;12.43;11.33;;;2.80;99.90;;;;;;5035863;28;20185;-86
2022/04/04 05:21:51;;;;;;;14.77;11.93;;;2.80;99.90;;;;;;5036062;28;20173;-87
2022/04/04 05:24:17;;;;;;;12.20;10.80;;;2.90;99.90;;;;;;5036903;28;20256;-85
2022/04/04 05:26:44;;;;;;;12.03;10.83;;;2.90;99.90;;;;;;5036368;28;20177;-85
2022/04/04 05:29:10;;;;;;;12.27;11.07;;;2.90;99.90;;;;;;5036097;28;20563;-83
2022/04/04 05:31:36;;;;;;;11.73;10.63;;;2.90;99.90;;;;;;5036417;28;20209;-88
2022/04/04 05:34:07;;;;;;;13.37;10.70;;;3.00;99.90;;;;;;5035708;28;20254;-90
2022/04/04 05:36:33;;;;;;;11.63;9.83;;;3.00;99.90;;;;;;5035847;28;20158;-85
2022/04/04 05:39:00;;;;;;;11.23;9.93;;;3.10;99.90;;;;;;5017947;28;20239;-84
2022/04/04 05:41:27;;;;;;;10.77;9.67;;;3.10;99.90;;;;;;5035677;28;20181;-84
2022/04/04 05:43:53;;;;;;;10.67;9.57;;;3.20;99.90;;;;;;5035440;28;20169;-86
2022/04/04 05:46:19;;;;;;;11.80;10.67;;;3.10;99.90;;;;;;5035224;28;20171;-86
2022/04/04 05:48:45;;;;;;;12.70;10.47;;;3.10;99.90;;;;;;5035177;28;20243;-86
2022/04/04 05:51:13;;;;;;;9.87;8.93;;;3.10;99.90;;;;;;5034808;28;20228;-83
2022/04/04 05:53:39;;;;;;;10.77;9.67;;;3.10;99.90;;;;;;5034470;28;20239;-85
2022/04/04 05:56:05;;;;;;;10.90;9.83;;;3.20;99.90;;;;;;5035242;28;20217;-86
2022/04/04 05:58:31;;;;;;;10.23;9.23;;;3.20;99.90;;;;;;5017210;28;20601;-87
2022/04/04 06:00:58;;;;;;;9.80;8.80;;;3.30;99.90;;;;;;5035520;28;20170;-87
2022/04/04 06:03:24;;;;;;;10.60;9.60;;;3.30;99.90;;;;;;5017479;28;20197;-87
2022/04/04 06:05:51;;;;;;;10.37;8.73;;;3.30;99.90;;;;;;5035647;28;20223;-85
2022/04/04 06:08:17;;;;;;;9.33;8.53;;;3.30;99.90;;;;;;5037887;28;20173;-88
2022/04/04 06:10:46;;;;;;;10.57;9.57;;;3.30;99.90;;;;;;5039444;28;20235;-86
2022/04/04 06:13:14;;;;;;;11.03;9.43;;;3.40;99.90;;;;;;5043691;28;20698;-85
2022/04/04 06:15:40;;;;;;;12.43;9.97;;;3.30;99.90;;;;;;5042949;28;20244;-84
2022/04/04 06:18:07;;;;;;;11.23;9.97;;;3.30;99.90;;;;;;5018602;28;20198;-86
2022/04/04 06:20:32;;;;;;;11.80;10.10;;;3.30;99.90;;;;;;5047019;28;20173;-82
2022/04/04 06:22:58;;;;;;;11.63;10.00;;;3.20;99.90;;;;;;5047204;28;20248;-85
2022/04/04 06:25:24;;;;;;;12.17;10.53;;;3.20;99.90;;;;;;5040175;28;20241;-86
2022/04/04 06:27:50;;;;;;;11.07;9.93;;;3.20;99.90;;;;;;5036558;28;20175;-89
2022/04/04 06:30:16;;;;;;;10.37;9.37;;;3.10;99.90;;;;;;5035944;28;20202;-90
2022/04/04 06:32:45;;;;;;;14.07;10.47;;;3.20;99.90;;;;;;5035453;28;20175;-86
2022/04/04 06:35:12;;;;;;;10.13;8.73;;;3.10;99.90;;;;;;5034878;28;20576;-88
2022/04/04 06:37:38;;;;;;;9.80;8.90;;;3.10;99.90;;;;;;5037972;28;20259;-87
2022/04/04 06:40:05;;;;;;;9.20;8.33;;;3.10;99.90;;;;;;5045031;28;20177;-87
2022/04/04 06:42:39;;;;;;;10.13;9.13;;;3.10;99.90;;;;;;5017988;28;20173;-85
2022/04/04 06:45:07;;;;;;;10.43;9.30;;;3.10;99.90;;;;;;5034242;28;20207;-86
2022/04/04 06:47:33;;;;;;;13.83;8.37;;;3.10;99.90;;;;;;5016498;28;20182;-87
2022/04/04 06:50:00;;;;;;;10.57;8.23;;;3.20;99.90;;;;;;5033976;28;20369;-85
2022/04/04 06:52:26;;;;;;;9.30;8.50;;;3.20;99.90;;;;;;5034228;28;20175;-86
2022/04/04 06:54:53;;;;;;;9.63;8.37;;;3.20;99.90;;;;;;5034953;28;20246;-87
2022/04/04 06:57:20;;;;;;;9.83;8.90;;;3.20;99.90;;;;;;5016390;28;20182;-85
2022/04/04 06:59:46;;;;;;;9.63;8.73;;;3.20;99.90;;;;;;5034002;28;20173;-85
2022/04/04 07:02:12;;;;;;;10.40;9.13;;;3.30;99.90;;;;;;5034187;28;20170;-84
2022/04/04 07:04:40;;;;;;;9.80;8.80;;;3.40;99.90;;;;;;5033698;28;20173;-83
2022/04/04 07:07:07;;;;;;;9.77;8.83;;;3.60;99.90;;;;;;5034046;28;20165;-85
2022/04/04 07:09:33;;;;;;;9.23;8.37;;;3.70;99.90;;;;;;5033848;28;20214;-84
2022/04/04 07:11:59;;;;;;;11.63;9.70;;;3.70;99.90;;;;;;5033698;28;20761;-82
2022/04/04 07:14:25;;;;;;;10.97;9.87;;;3.70;99.90;;;;;;5015747;28;20228;-82
2022/04/04 07:16:53;;;;;;;10.13;9.13;;;3.80;99.90;;;;;;5016954;28;20183;-84
2022/04/04 07:19:22;;;;;;;9.33;8.53;;;4.00;99.90;;;;;;5034799;28;20172;-82
2022/04/04 07:21:50;;;;;;;10.17;8.97;;;4.10;99.90;;;;;;5038556;28;20558;-82
2022/04/04 07:24:20;;;;;;;10.03;8.53;;;4.20;99.90;;;;;;5035609;28;20660;-83
2022/04/04 07:26:48;;;;;;;9.07;8.27;;;4.40;99.90;;;;;;5034898;28;20177;-83
2022/04/04 07:29:16;;;;;;;9.47;8.57;;;4.70;99.90;;;;;;5038634;28;20214;-82
2022/04/04 07:31:43;;;;;;;9.03;8.20;;;4.80;99.90;;;;;;5038099;28;20192;-82
2022/04/04 07:34:11;;;;;;;9.20;8.30;;;4.90;99.90;;;;;;5018897;28;20201;-83
2022/04/04 07:36:40;;;;;;;9.13;8.33;;;4.90;99.80;;;;;;5034824;28;20201;-83
2022/04/04 07:39:07;;;;;;;8.50;7.80;;;4.90;99.50;;;;;;5034341;28;20266;-82
2022/04/04 07:41:33;;;;;;;8.97;8.17;;;4.90;99.50;;;;;;5033649;28;20229;-82
2022/04/04 07:43:59;;;;;;;8.93;8.23;;;5.10;99.90;;;;;;5033505;28;20584;-84
2022/04/04 07:46:25;;;;;;;9.37;8.57;;;5.10;98.60;;;;;;5033246;28;20212;-84
2022/04/04 07:48:54;;;;;;;8.43;7.73;;;5.20;99.10;;;;;;5015806;28;20243;-84
2022/04/04 07:51:22;;;;;;;8.70;7.90;;;5.30;99.50;;;;;;5032998;28;20234;-84
2022/04/04 07:53:48;;;;;;;8.73;7.73;;;5.30;98.40;;;;;;5033001;28;20175;-85
2022/04/04 07:56:14;;;;;;;10.80;8.53;;;5.20;98.40;;;;;;5033452;28;20182;-83
2022/04/04 07:58:39;;;;;;;9.07;8.23;;;5.20;98.80;;;;;;5015987;28;20179;-83
2022/04/04 08:01:05;;;;;;;9.90;8.90;;;5.20;98.80;;;;;;5033667;28;20259;-83
2022/04/04 08:03:31;;;;;;;9.27;8.03;;;5.20;98.30;;;;;;5033340;28;20243;-86
2022/04/04 08:05:57;;;;;;;11.27;8.07;;;5.10;97.70;;;;;;5033296;28;20198;-82
2022/04/04 08:08:24;;;;;;;10.60;8.80;;;5.00;97.90;;;;;;5033099;28;20171;-83
2022/04/04 08:10:50;;;;;;;9.97;8.13;;;5.00;98.10;;;;;;5033596;28;20268;-87
2022/04/04 08:13:16;;;;;;;10.43;8.27;;;5.10;98.00;;;;;;5033458;28;20258;-87
2022/04/04 08:15:42;;;;;;;9.50;8.50;;;5.00;97.80;;;;;;5033239;28;20577;-83
2022/04/04 08:18:08;;;;;;;9.70;8.63;;;5.00;97.90;;;;;;5035599;28;20180;-82
2022/04/04 08:20:34;;;;;;;10.17;8.53;;;5.10;98.50;;;;;;5036867;28;20199;-84
2022/04/04 08:23:00;;;;;;;7.63;6.93;;;5.40;98.60;;;;;;5037798;28;20628;-82
2022/04/04 08:25:26;;;;;;;8.53;7.83;;;5.50;97.10;;;;;;5037054;28;20173;-83
2022/04/04 08:27:51;;;;;;;9.53;8.17;;;5.50;97.00;;;;;;5036658;28;20214;-83
2022/04/04 08:30:18;;;;;;;9.90;7.87;;;5.50;96.40;;;;;;5037062;28;20205;-84
2022/04/04 08:32:45;;;;;;;8.83;8.03;;;5.60;97.00;;;;;;5037051;28;20535;-86
2022/04/04 08:35:13;;;;;;;10.10;9.10;;;5.70;97.80;;;;;;5022631;28;20180;-86
2022/04/04 08:37:41;;;;;;;8.97;8.17;;;5.80;97.70;;;;;;5043668;28;20173;-86
2022/04/04 08:40:10;;;;;;;10.80;8.37;;;5.90;97.50;;;;;;5041487;28;20256;-90
2022/04/04 08:42:36;;;;;;;8.20;7.50;;;5.80;96.20;;;;;;5039424;28;20617;-85
2022/04/04 08:45:04;;;;;;;8.43;7.63;;;5.70;96.00;;;;;;5036732;28;20168;-87
2022/04/04 08:47:33;;;;;;;9.53;8.63;;;5.60;96.10;;;;;;5036837;28;20177;-88
2022/04/04 08:50:00;;;;;;;9.90;8.23;;;5.50;96.30;;;;;;5037716;28;20315;-85
2022/04/04 08:52:27;;;;;;;9.37;8.47;;;5.40;97.20;;;;;;5037327;28;20519;-89
2022/04/04 08:54:53;;;;;;;9.77;8.87;;;5.40;97.40;;;;;;5018881;28;20520;-86
2022/04/04 08:57:19;;;;;;;9.73;8.67;;;5.40;97.40;;;;;;5036768;28;20173;-86
2022/04/04 08:59:48;;;;;;;8.90;8.10;;;5.50;97.80;;;;;;5036328;28;20177;-89
2022/04/04 09:02:15;;;;;;;9.00;8.07;;;5.60;97.10;;;;;;5036541;28;20166;-85
2022/04/04 09:04:41;;;;;;;11.27;8.50;;;5.80;96.90;;;;;;5036445;28;20235;-84
2022/04/04 09:07:11;;;;;;;9.23;8.43;;;5.80;96.20;;;;;;5036488;28;20651;-85
2022/04/04 09:09:43;;;;;;;9.47;8.67;;;5.80;96.60;;;;;;5018243;28;20212;-85
2022/04/04 09:12:23;;;;;;;9.87;9.07;;;5.80;96.40;;;;;;5035900;28;20332;-83
2022/04/04 09:14:56;;;;;;;9.63;8.83;;;6.00;97.10;;;;;;5018175;28;20175;-86
2022/04/04 09:17:32;;;;;;;9.70;8.80;;;6.10;96.70;;;;;;5035942;28;20165;-83
2022/04/04 09:19:58;;;;;;;9.60;8.80;;;6.20;96.10;;;;;;5018102;28;20533;-84
2022/04/04 09:22:25;;;;;;;9.60;8.63;;;6.40;96.00;;;;;;5035643;28;20169;-83
2022/04/04 09:24:56;;;;;;;10.20;9.30;;;6.30;94.70;;;;;;5035471;28;20176;-83
2022/04/04 09:27:23;;;;;;;10.27;9.27;;;6.20;96.10;;;;;;5035652;28;20168;-84
2022/04/04 09:29:58;;;;;;;10.57;8.40;;;6.20;95.90;;;;;;5016445;28;20589;-85
2022/04/04 09:32:46;;;;;;;9.70;8.90;;;6.30;95.80;;;;;;5035451;28;20163;-84
2022/04/04 09:35:18;;;;;;;9.90;8.50;;;6.20;96.00;;;;;;5035684;28;20180;-86
2022/04/04 09:37:46;;;;;;;9.10;8.33;;;6.10;95.70;;;;;;5035948;28;20168;-84
2022/04/04 09:40:18;;;;;;;11.57;9.07;;;6.00;95.50;;;;;;5017846;28;20222;-85
2022/04/04 09:42:59;;;;;;;10.00;9.07;;;6.00;95.20;;;;;;5035679;28;20160;-82
2022/04/04 09:45:28;;;;;;;11.17;8.97;;;5.90;95.20;;;;;;5035263;28;20639;-83
2022/04/04 09:48:07;;;;;;;10.20;9.37;;;6.00;96.40;;;;;;5035512;28;20171;-84
2022/04/04 09:50:50;;;;;;;10.20;9.30;;;6.10;95.90;;;;;;5036197;28;20234;-85
2022/04/04 09:53:28;;;;;;;9.13;8.33;;;6.30;96.60;;;;;;5018041;28;20232;-84
2022/04/04 09:56:00;;;;;;;10.00;9.10;;;6.50;96.70;;;;;;5035464;28;20247;-86
2022/04/04 09:58:28;;;;;;;9.80;8.90;;;6.60;96.60;;;;;;5035494;28;20616;-84
2022/04/04 10:00:55;;;;;;;10.20;9.30;;;6.70;96.40;;;;;;5035909;28;20251;-84
2022/04/04 10:03:23;;;;;;;10.43;9.43;;;6.80;96.20;;;;;;5035918;28;20570;-86
2022/04/04 10:06:09;;;;;;;10.80;9.60;;;6.90;95.60;;;;;;5035974;28;20163;-87
2022/04/04 10:08:38;;;;;;;10.03;8.97;;;6.90;94.50;;;;;;5035066;28;20230;-85
2022/04/04 10:11:08;;;;;;;10.50;9.13;;;6.90;94.30;;;;;;5017177;28;20654;-84
2022/04/04 10:13:34;;;;;;;10.67;9.63;;;6.90;94.50;;;;;;5034997;28;20179;-84
2022/04/04 10:16:00;;;;;;;10.53;9.53;;;6.80;94.40;;;;;;5037146;28;20194;-82
2022/04/04 10:18:27;;;;;;;10.27;9.27;;;6.90;95.30;;;;;;5038197;28;20178;-85
2022/04/04 10:20:53;;;;;;;10.23;9.33;;;7.00;95.20;;;;;;5041837;28;20181;-84
2022/04/04 10:23:22;;;;;;;10.13;9.03;;;7.10;94.40;;;;;;5040116;28;20287;-86
2022/04/04 10:25:52;;;;;;;10.90;9.80;;;7.20;93.90;;;;;;5050014;28;20180;-83
2022/04/04 10:28:35;;;;;;;12.10;10.90;;;7.20;94.20;;;;;;5051115;28;20173;-85
2022/04/04 10:31:21;;;;;;;10.27;9.17;;;7.20;95.10;;;;;;5031117;28;20658;-83
2022/04/04 10:33:48;;;;;;;10.73;9.63;;;7.30;94.00;;;;;;5047551;28;20244;-87
2022/04/04 10:36:21;;;;;;;9.70;8.80;;;7.30;94.20;;;;;;5046971;28;20172;-86
2022/04/04 10:38:50;;;;;;;13.40;10.07;;;7.30;93.80;;;;;;5035843;28;20157;-86
2022/04/04 10:41:18;;;;;;;11.10;9.47;;;7.20;93.60;;;;;;5035839;28;20226;-84
2022/04/04 10:43:49;;;;;;;11.27;10.30;;;7.20;93.70;;;;;;5047463;28;20182;-84
2022/04/04 10:46:20;;;;;;;10.80;9.67;;;7.40;94.30;;;;;;5028513;28;20240;-81
2022/04/04 10:48:51;;;;;;;9.57;8.67;;;7.70;94.20;;;;;;5047569;28;20169;-85
2022/04/04 10:51:25;;;;;;;9.83;8.63;;;7.90;93.10;;;;;;5040988;28;20264;-82
2022/04/04 10:53:53;;;;;;;10.40;9.33;;;8.00;92.70;;;;;;5020941;28;20538;-82
2022/04/04 10:56:27;;;;;;;10.10;8.93;;;7.80;92.80;;;;;;5037194;28;20183;-83
2022/04/04 10:59:13;;;;;;;9.97;8.97;;;7.90;92.90;;;;;;5034655;28;20171;-82
2022/04/04 11:01:40;;;;;;;10.60;9.50;;;7.90;92.50;;;;;;5033835;28;20180;-83
2022/04/04 11:04:06;;;;;;;10.73;9.63;;;8.00;92.20;;;;;;5035247;28;20169;-83
2022/04/04 11:09:37;;;;;;;12.40;9.73;;;8.00;92.40;;;;;;5034230;28;20207;-84
2022/04/04 11:12:12;;;;;;;9.97;9.07;;;8.00;92.00;;;;;;5034058;28;20167;-82
2022/04/04 11:14:42;;;;;;;10.97;9.87;;;8.00;92.40;;;;;;5016081;28;20686;-83
2022/04/04 11:20:14;;;;;;;11.00;10.10;;;8.10;92.10;;;;;;5034356;28;20176;-83
2022/04/04 11:22:46;;;;;;;10.40;9.43;;;8.10;91.90;;;;;;5021569;28;20200;-82
2022/04/04 11:25:15;;;;;;;10.67;9.53;;;8.20;92.10;;;;;;5042198;28;20176;-84
2022/04/04 11:27:42;;;;;;;10.17;9.27;;;8.30;92.10;;;;;;5036816;28;20168;-84
2022/04/04 11:30:10;;;;;;;10.43;9.47;;;8.50;92.00;;;;;;5038172;28;20196;-82
2022/04/04 11:32:40;;;;;;;9.67;8.77;;;8.50;91.80;;;;;;5045443;28;20211;-81
2022/04/04 11:35:11;;;;;;;10.40;9.07;;;8.40;91.70;;;;;;5023956;28;20187;-83
2022/04/04 11:37:43;;;;;;;11.37;9.87;;;8.20;91.20;;;;;;5018736;28;20204;-85
2022/04/04 11:40:13;;;;;;;10.83;9.83;;;8.10;91.80;;;;;;5035691;28;20174;-90
2022/04/04 11:42:41;;;;;;;12.93;9.73;;;8.20;92.10;;;;;;5016617;28;20234;-84
2022/04/04 11:45:08;;;;;;;10.57;9.47;;;8.20;91.50;;;;;;5016306;28;20178;-85
2022/04/04 11:47:39;;;;;;;11.27;10.17;;;8.20;91.80;;;;;;5016232;28;20231;-82
2022/04/04 11:50:06;;;;;;;13.90;10.23;;;8.10;91.50;;;;;;5012300;28;20288;-83
2022/04/04 11:52:52;;;;;;;12.23;10.30;;;8.10;91.90;;;;;;5015527;28;20200;-86
2022/04/04 11:55:19;;;;;;;11.30;10.20;;;8.00;92.30;;;;;;5016718;28;20262;-83
2022/04/04 11:57:49;;;;;;;11.03;9.57;;;8.00;92.00;;;;;;5020429;28;20176;-84
2022/04/04 12:00:27;;;;;;;10.80;9.80;;;7.90;92.30;;;;;;5019176;28;20257;-87
2022/04/04 12:02:53;;;;;;;10.70;9.60;;;7.90;92.30;;;;;;5021345;28;20248;-84
2022/04/04 12:05:23;;;;;;;9.50;8.70;;;7.90;91.80;;;;;;5017912;28;20185;-84
2022/04/04 12:07:52;;;;;;;9.80;9.00;;;8.00;92.00;;;;;;5017971;28;20687;-82
2022/04/04 12:10:26;;;;;;;11.10;9.10;;;8.10;91.80;;;;;;5017962;28;20734;-85
2022/04/04 12:13:07;;;;;;;9.87;9.07;;;8.20;92.00;;;;;;5019335;28;20610;-83
2022/04/04 12:15:35;;;;;;;10.20;9.30;;;8.30;92.00;;;;;;5018159;28;20215;-84
2022/04/04 12:18:04;;;;;;;9.87;8.97;;;8.50;91.80;;;;;;5017565;28;20174;-88
2022/04/04 12:20:41;;;;;;;9.80;8.87;;;8.60;92.30;;;;;;5019715;28;20174;-91
2022/04/04 12:26:03;;;;;;;9.83;8.77;;;8.90;91.50;;;;;;5022876;28;20172;-89
2022/04/04 12:28:34;;;;;;;9.60;8.70;;;8.80;91.60;;;;;;5017489;28;20232;-86
2022/04/04 12:31:32;;;;;;;10.70;8.97;;;8.90;91.10;;;;;;5016912;28;20207;-82
2022/04/04 12:34:02;;;;;;;9.40;8.60;;;9.00;90.80;;;;;;4976102;28;20201;-83
2022/04/04 12:36:32;;;;;;;10.20;9.20;;;8.80;91.00;;;;;;4975724;28;20195;-82
2022/04/04 12:39:00;;;;;;;9.70;8.90;;;8.70;91.50;;;;;;4975769;28;20175;-83
2022/04/04 12:41:27;;;;;;;10.87;9.60;;;8.70;91.90;;;;;;4976327;28;20182;-83
2022/04/04 12:44:01;;;;;;;11.73;9.97;;;8.50;91.20;;;;;;4976142;28;20228;-83
2022/04/04 12:46:32;;;;;;;9.87;9.07;;;8.50;91.30;;;;;;4980872;28;20182;-83
2022/04/04 12:49:18;;;;;;;10.77;9.73;;;8.80;91.50;;;;;;4982894;28;20164;-83
2022/04/04 12:52:05;;;;;;;10.07;9.03;;;8.90;91.40;;;;;;4956476;29;20196;-82
2022/04/04 12:54:36;;;;;;;11.43;8.80;;;9.10;91.40;;;;;;4956408;29;20187;-86
2022/04/04 12:57:04;;;;;;;10.23;9.23;;;9.30;91.50;;;;;;4956888;29;20708;-85
2022/04/04 12:59:46;;;;;;;10.20;9.10;;;9.30;91.30;;;;;;4956150;29;20672;-83
2022/04/04 13:02:13;;;;;;;10.83;9.73;;;9.40;91.80;;;;;;4956343;29;20711;-84